Wetterdaten: Samstag, 28.03.2015
Datum Zeit Temp. A. Feuchte A. Luftdruck Regen Wind Richtung Richtung Sonnenschein ET UV Solar Taupunkt Windchill Windben Empfang
28.03.2015 00:00 4,6 C 72 % 1021,8 hPa 0,0 l/m 0,4 km/h (0 Bft) S-SW 204 0 min 0,000 mm 0,0 UV-I 0 W/m -0,0 C 4,6 C 4,0 km/h (1 Bft) 0,00 %
28.03.2015 00:15 4,6 C 73 % 1021,9 hPa 0,0 l/m 0,0 km/h (0 Bft) SO 140 0 min 0,000 mm 0,0 UV-I 0 W/m 0,2 C 4,6 C 0,0 km/h (0 Bft) 0,00 %
28.03.2015 00:30 4,5 C 74 % 1022,1 hPa 0,0 l/m 0,0 km/h (0 Bft) SO 128 0 min 0,000 mm 0,0 UV-I 0 W/m 0,3 C 4,5 C 0,0 km/h (0 Bft) 0,00 %
28.03.2015 00:45 4,5 C 74 % 1022,1 hPa 0,0 l/m 0,7 km/h (0 Bft) W-SW 251 0 min 0,000 mm 0,0 UV-I 0 W/m 0,3 C 4,5 C 4,0 km/h (1 Bft) 0,00 %
28.03.2015 01:00 4,4 C 75 % 1022,2 hPa 0,0 l/m 0,0 km/h (0 Bft) W-SW 255 0 min 0,000 mm 0,0 UV-I 0 W/m 0,4 C 4,4 C 0,0 km/h (0 Bft) 0,00 %
28.03.2015 01:15 4,3 C 75 % 1022,1 hPa 0,0 l/m 0,0 km/h (0 Bft) S 183 0 min 0,000 mm 0,0 UV-I 0 W/m 0,3 C 4,3 C 0,0 km/h (0 Bft) 0,00 %
28.03.2015 01:30 4,4 C 72 % 1022,1 hPa 0,0 l/m 0,7 km/h (0 Bft) S-SW 209 0 min 0,000 mm 0,0 UV-I 0 W/m -0,2 C 4,4 C 4,0 km/h (1 Bft) 0,00 %
28.03.2015 01:45 4,4 C 72 % 1022,2 hPa 0,0 l/m 0,0 km/h (0 Bft) W-SW 252 0 min 0,000 mm 0,0 UV-I 0 W/m -0,2 C 4,4 C 0,0 km/h (0 Bft) 0,00 %
28.03.2015 02:00 4,4 C 72 % 1022,1 hPa 0,0 l/m 0,0 km/h (0 Bft) O-SO 114 0 min 0,000 mm 0,0 UV-I 0 W/m -0,2 C 4,4 C 0,0 km/h (0 Bft) 0,00 %
28.03.2015 02:15 4,4 C 74 % 1022,0 hPa 0,0 l/m 0,0 km/h (0 Bft) S 186 0 min 0,000 mm 0,0 UV-I 0 W/m 0,2 C 4,4 C 0,0 km/h (0 Bft) 0,00 %
28.03.2015 02:30 4,4 C 74 % 1021,9 hPa 0,0 l/m 0,0 km/h (0 Bft) S 175 0 min 0,000 mm 0,0 UV-I 0 W/m 0,2 C 4,4 C 0,0 km/h (0 Bft) 0,00 %
28.03.2015 02:45 4,3 C 74 % 1022,0 hPa 0,0 l/m 0,7 km/h (0 Bft) SW 230 0 min 0,000 mm 0,0 UV-I 0 W/m 0,1 C 4,3 C 4,0 km/h (1 Bft) 0,00 %
28.03.2015 03:00 4,3 C 75 % 1022,1 hPa 0,0 l/m 0,0 km/h (0 Bft) S-SW 196 0 min 0,000 mm 0,0 UV-I 0 W/m 0,3 C 4,3 C 0,0 km/h (0 Bft) 0,00 %
28.03.2015 03:15 4,5 C 73 % 1022,1 hPa 0,0 l/m 1,8 km/h (1 Bft) W-SW 253 0 min 0,000 mm 0,0 UV-I 0 W/m 0,1 C 4,5 C 4,0 km/h (1 Bft) 0,00 %
28.03.2015 03:30 4,5 C 73 % 1022,3 hPa 0,0 l/m 2,2 km/h (1 Bft) SW 227 0 min 0,000 mm 0,0 UV-I 0 W/m 0,1 C 4,5 C 4,0 km/h (1 Bft) 0,00 %
28.03.2015 03:45 4,4 C 73 % 1022,2 hPa 0,0 l/m 0,7 km/h (0 Bft) SW 224 0 min 0,000 mm 0,0 UV-I 0 W/m -0,0 C 4,4 C 4,0 km/h (1 Bft) 0,00 %
28.03.2015 04:00 4,4 C 74 % 1022,1 hPa 0,0 l/m 0,7 km/h (0 Bft) W-SW 251 0 min 0,000 mm 0,0 UV-I 0 W/m 0,2 C 4,4 C 4,0 km/h (1 Bft) 0,00 %
28.03.2015 04:15 4,2 C 75 % 1022,2 hPa 0,0 l/m 0,0 km/h (0 Bft) SW 221 0 min 0,000 mm 0,0 UV-I 0 W/m 0,2 C 4,2 C 0,0 km/h (0 Bft) 0,00 %
28.03.2015 04:30 4,0 C 75 % 1022,3 hPa 0,0 l/m 0,0 km/h (0 Bft) S 177 0 min 0,000 mm 0,0 UV-I 0 W/m -0,0 C 4,0 C 0,0 km/h (0 Bft) 0,00 %
28.03.2015 04:45 4,0 C 75 % 1022,3 hPa 0,0 l/m 1,4 km/h (1 Bft) W-SW 252 0 min 0,000 mm 0,0 UV-I 0 W/m -0,0 C 4,0 C 4,0 km/h (1 Bft) 0,00 %
28.03.2015 05:00 4,0 C 75 % 1022,2 hPa 0,0 l/m 0,0 km/h (0 Bft) S-SW 193 0 min 0,000 mm 0,0 UV-I 0 W/m -0,0 C 4,0 C 0,0 km/h (0 Bft) 0,00 %
28.03.2015 05:15 3,8 C 75 % 1022,3 hPa 0,0 l/m 0,0 km/h (0 Bft) S 191 0 min 0,000 mm 0,0 UV-I 0 W/m -0,2 C 3,8 C 0,0 km/h (0 Bft) 0,00 %
28.03.2015 05:30 3,7 C 75 % 1022,7 hPa 0,0 l/m 0,0 km/h (0 Bft) S 177 0 min 0,000 mm 0,0 UV-I 0 W/m -0,3 C 3,7 C 0,0 km/h (0 Bft) 0,00 %
28.03.2015 05:45 3,9 C 74 % 1022,6 hPa 0,0 l/m 0,4 km/h (0 Bft) S-SW 201 0 min 0,000 mm 0,0 UV-I 0 W/m -0,3 C 3,9 C 4,0 km/h (1 Bft) 0,00 %
28.03.2015 06:00 3,9 C 74 % 1022,7 hPa 0,0 l/m 0,4 km/h (0 Bft) N 357 0 min 0,000 mm 0,0 UV-I 0 W/m -0,3 C 3,9 C 4,0 km/h (1 Bft) 0,00 %
28.03.2015 06:15 3,9 C 75 % 1023,0 hPa 0,0 l/m 0,7 km/h (0 Bft) S-SW 210 0 min 0,000 mm 0,0 UV-I 7 W/m -0,1 C 3,9 C 4,0 km/h (1 Bft) 0,00 %
28.03.2015 06:30 4,1 C 74 % 1022,6 hPa 0,0 l/m 0,0 km/h (0 Bft) W-NW 299 0 min 0,000 mm 0,0 UV-I 19 W/m -0,1 C 4,1 C 0,0 km/h (0 Bft) 0,00 %
28.03.2015 06:45 4,3 C 74 % 1022,7 hPa 0,0 l/m 0,0 km/h (0 Bft) S-SW 193 0 min 0,000 mm 1,0 UV-I 33 W/m 0,1 C 4,3 C 0,0 km/h (0 Bft) 0,00 %
28.03.2015 07:00 4,5 C 72 % 1022,8 hPa 0,0 l/m 0,0 km/h (0 Bft) N-NW 339 0 min 0,000 mm 1,0 UV-I 52 W/m -0,1 C 4,5 C 0,0 km/h (0 Bft) 0,00 %
28.03.2015 07:15 4,7 C 72 % 1022,6 hPa 0,0 l/m 0,0 km/h (0 Bft) S 183 15 min 0,000 mm 1,0 UV-I 60 W/m 0,1 C 4,7 C 0,0 km/h (0 Bft) 0,00 %
28.03.2015 07:30 5,0 C 70 % 1022,8 hPa 0,0 l/m 0,0 km/h (0 Bft) O 83 15 min 0,000 mm 1,0 UV-I 83 W/m -0,0 C 5,0 C 0,0 km/h (0 Bft) 0,00 %
28.03.2015 07:45 5,3 C 69 % 1022,8 hPa 0,0 l/m 0,4 km/h (0 Bft) NO 44 15 min 0,000 mm 1,0 UV-I 105 W/m 0,1 C 5,3 C 4,0 km/h (1 Bft) 0,00 %
28.03.2015 08:00 5,9 C 67 % 1022,6 hPa 0,0 l/m 2,2 km/h (1 Bft) W-SW 251 15 min 0,000 mm 2,0 UV-I 141 W/m 0,3 C 5,9 C 4,0 km/h (1 Bft) 0,00 %
28.03.2015 08:15 6,6 C 62 % 1022,5 hPa 0,0 l/m 0,4 km/h (0 Bft) S 173 15 min 0,000 mm 2,0 UV-I 170 W/m -0,1 C 6,6 C 4,0 km/h (1 Bft) 0,00 %
28.03.2015 08:30 7,2 C 58 % 1022,1 hPa 0,0 l/m 13,3 km/h (3 Bft) W-SW 256 15 min 0,000 mm 2,0 UV-I 203 W/m -0,5 C 2,6 C 19,8 km/h (3 Bft) 0,00 %
28.03.2015 08:45 7,3 C 58 % 1022,4 hPa 0,0 l/m 0,0 km/h (0 Bft) SW 218 15 min 0,000 mm 2,0 UV-I 227 W/m -0,4 C 7,3 C 0,0 km/h (0 Bft) 0,00 %
28.03.2015 09:00 7,3 C 56 % 1022,2 hPa 0,0 l/m 0,0 km/h (0 Bft) S-SW 205 15 min 0,000 mm 2,0 UV-I 200 W/m -0,9 C 7,3 C 0,0 km/h (0 Bft) 0,00 %
28.03.2015 09:15 7,6 C 58 % 1022,2 hPa 0,0 l/m 0,4 km/h (0 Bft) SW 216 15 min 0,000 mm 3,0 UV-I 227 W/m -0,1 C 7,6 C 4,0 km/h (1 Bft) 0,00 %
28.03.2015 09:30 8,7 C 53 % 1022,0 hPa 0,0 l/m 4,0 km/h (1 Bft) W-SW 255 15 min 0,000 mm 3,0 UV-I 291 W/m -0,3 C 8,7 C 7,9 km/h (2 Bft) 0,00 %
28.03.2015 09:45 8,9 C 52 % 1021,9 hPa 0,0 l/m 0,7 km/h (0 Bft) O-SO 120 15 min 0,000 mm 3,0 UV-I 330 W/m -0,4 C 8,9 C 4,0 km/h (1 Bft) 0,00 %
28.03.2015 10:00 9,1 C 51 % 1021,6 hPa 0,0 l/m 10,4 km/h (2 Bft) W-SW 250 15 min 0,000 mm 3,0 UV-I 334 W/m -0,5 C 6,4 C 11,9 km/h (2 Bft) 0,00 %
28.03.2015 10:15 8,9 C 51 % 1021,4 hPa 0,0 l/m 3,2 km/h (1 Bft) W-SW 256 15 min 0,000 mm 4,0 UV-I 295 W/m -0,7 C 8,9 C 4,0 km/h (1 Bft) 0,00 %
28.03.2015 10:30 9,1 C 49 % 1021,1 hPa 0,0 l/m 0,4 km/h (0 Bft) NO 45 15 min 0,000 mm 3,0 UV-I 334 W/m -1,0 C 9,1 C 4,0 km/h (1 Bft) 0,00 %
28.03.2015 10:45 9,1 C 50 % 1020,9 hPa 0,0 l/m 0,0 km/h (0 Bft) SW 217 0 min 0,000 mm 3,0 UV-I 283 W/m -0,8 C 9,1 C 0,0 km/h (0 Bft) 0,00 %
28.03.2015 11:00 9,1 C 47 % 1020,7 hPa 0,0 l/m 0,7 km/h (0 Bft) S-SW 208 0 min 0,000 mm 2,0 UV-I 276 W/m -1,6 C 9,1 C 4,0 km/h (1 Bft) 0,00 %
28.03.2015 11:15 9,5 C 42 % 1020,4 hPa 0,0 l/m 2,9 km/h (1 Bft) SW 224 0 min 0,000 mm 2,0 UV-I 251 W/m -2,8 C 9,5 C 7,9 km/h (2 Bft) 0,00 %
28.03.2015 11:30 8,8 C 43 % 1020,5 hPa 0,0 l/m 1,4 km/h (1 Bft) SW 229 0 min 0,000 mm 2,0 UV-I 220 W/m -3,1 C 8,8 C 4,0 km/h (1 Bft) 0,00 %
28.03.2015 11:45 8,6 C 44 % 1020,3 hPa 0,0 l/m 5,8 km/h (2 Bft) W-SW 256 0 min 0,000 mm 2,0 UV-I 187 W/m -2,9 C 8,6 C 7,9 km/h (2 Bft) 0,00 %
28.03.2015 12:00 8,3 C 48 % 1020,4 hPa 0,0 l/m 6,8 km/h (2 Bft) W-NW 284 0 min 0,000 mm 2,0 UV-I 193 W/m -2,1 C 8,0 C 7,9 km/h (2 Bft) 0,00 %
28.03.2015 12:15 8,8 C 45 % 1020,1 hPa 0,0 l/m 4,0 km/h (1 Bft) W-SW 251 0 min 0,000 mm 3,0 UV-I 208 W/m -2,5 C 8,8 C 7,9 km/h (2 Bft) 0,00 %
28.03.2015 12:30 9,0 C 50 % 1019,7 hPa 0,0 l/m 0,4 km/h (0 Bft) W-NW 299 0 min 0,000 mm 4,0 UV-I 241 W/m -0,9 C 9,0 C 4,0 km/h (1 Bft) 0,00 %
28.03.2015 12:45 10,0 C 45 % 1019,4 hPa 0,0 l/m 4,7 km/h (1 Bft) W-SW 256 15 min 0,000 mm 3,0 UV-I 541 W/m -1,4 C 10,0 C 7,9 km/h (2 Bft) 0,00 %
28.03.2015 13:00 8,9 C 50 % 1019,4 hPa 0,0 l/m 1,4 km/h (1 Bft) S-SW 204 0 min 0,000 mm 1,0 UV-I 245 W/m -0,9 C 8,9 C 4,0 km/h (1 Bft) 0,00 %
28.03.2015 13:15 8,7 C 50 % 1019,2 hPa 0,0 l/m 0,0 km/h (0 Bft) SW 232 0 min 0,000 mm 2,0 UV-I 157 W/m -1,1 C 8,7 C 0,0 km/h (0 Bft) 0,00 %
28.03.2015 13:30 9,3 C 47 % 1018,8 hPa 0,0 l/m 2,2 km/h (1 Bft) SW 219 0 min 0,000 mm 3,0 UV-I 252 W/m -1,4 C 9,3 C 4,0 km/h (1 Bft) 0,00 %
28.03.2015 13:45 9,6 C 45 % 1018,6 hPa 0,0 l/m 0,7 km/h (0 Bft) W-SW 256 0 min 0,000 mm 3,0 UV-I 280 W/m -1,7 C 9,6 C 4,0 km/h (1 Bft) 0,00 %
28.03.2015 14:00 9,7 C 47 % 1018,1 hPa 0,0 l/m 0,4 km/h (0 Bft) S-SW 195 0 min 0,000 mm 2,0 UV-I 325 W/m -1,1 C 9,7 C 4,0 km/h (1 Bft) 0,00 %
28.03.2015 14:15 9,3 C 48 % 1017,2 hPa 0,0 l/m 0,0 km/h (0 Bft) S 181 0 min 0,000 mm 2,0 UV-I 220 W/m -1,1 C 9,3 C 0,0 km/h (0 Bft) 0,00 %
28.03.2015 14:30 9,9 C 44 % 1016,7 hPa 0,0 l/m 0,0 km/h (0 Bft) SW 216 0 min 0,000 mm 2,0 UV-I 221 W/m -1,8 C 9,9 C 0,0 km/h (0 Bft) 0,00 %
28.03.2015 14:45 9,8 C 42 % 1016,7 hPa 0,0 l/m 4,3 km/h (1 Bft) W 268 15 min 0,000 mm 2,0 UV-I 510 W/m -2,5 C 9,8 C 7,9 km/h (2 Bft) 0,00 %
28.03.2015 15:00 9,5 C 44 % 1016,7 hPa 0,0 l/m 0,4 km/h (0 Bft) NW 326 15 min 0,000 mm 2,0 UV-I 515 W/m -2,1 C 9,5 C 4,0 km/h (1 Bft) 0,00 %
28.03.2015 15:15 9,8 C 43 % 1016,5 hPa 0,0 l/m 1,4 km/h (1 Bft) W-SW 256 15 min 0,000 mm 2,0 UV-I 520 W/m -2,2 C 9,8 C 4,0 km/h (1 Bft) 0,00 %
28.03.2015 15:30 10,4 C 41 % 1016,0 hPa 0,0 l/m 0,0 km/h (0 Bft) S 189 15 min 0,000 mm 2,0 UV-I 515 W/m -2,3 C 10,4 C 0,0 km/h (0 Bft) 0,00 %
28.03.2015 15:45 10,1 C 42 % 1016,0 hPa 0,0 l/m 1,4 km/h (1 Bft) NW 311 15 min 0,000 mm 2,0 UV-I 510 W/m -2,2 C 10,1 C 4,0 km/h (1 Bft) 0,00 %
28.03.2015 16:00 9,5 C 39 % 1015,9 hPa 0,0 l/m 4,0 km/h (1 Bft) SW 221 15 min 0,000 mm 1,0 UV-I 502 W/m -3,7 C 9,5 C 7,9 km/h (2 Bft) 0,00 %
28.03.2015 16:15 11,1 C 36 % 1015,3 hPa 0,0 l/m 0,4 km/h (0 Bft) S 191 15 min 0,000 mm 1,0 UV-I 496 W/m -3,4 C 11,1 C 4,0 km/h (1 Bft) 0,00 %
28.03.2015 16:30 11,2 C 39 % 1015,3 hPa 0,0 l/m 0,7 km/h (0 Bft) SW 227 15 min 0,000 mm 1,0 UV-I 472 W/m -2,2 C 11,2 C 4,0 km/h (1 Bft) 0,00 %
28.03.2015 16:45 10,4 C 41 % 1015,5 hPa 0,0 l/m 0,0 km/h (0 Bft) W-NW 287 15 min 0,000 mm 1,0 UV-I 422 W/m -2,3 C 10,4 C 0,0 km/h (0 Bft) 0,00 %
28.03.2015 17:00 9,8 C 42 % 1015,5 hPa 0,0 l/m 0,0 km/h (0 Bft) SW 218 15 min 0,000 mm 1,0 UV-I 355 W/m -2,5 C 9,8 C 0,0 km/h (0 Bft) 0,00 %
28.03.2015 17:15 9,9 C 41 % 1015,6 hPa 0,0 l/m 0,7 km/h (0 Bft) W-SW 251 15 min 0,000 mm 1,0 UV-I 318 W/m -2,7 C 9,9 C 4,0 km/h (1 Bft) 0,00 %
28.03.2015 17:30 9,4 C 44 % 1015,6 hPa 0,0 l/m 0,0 km/h (0 Bft) W-NW 288 15 min 0,000 mm 0,0 UV-I 248 W/m -2,2 C 9,4 C 0,0 km/h (0 Bft) 0,00 %
28.03.2015 17:45 9,1 C 45 % 1015,6 hPa 0,0 l/m 0,0 km/h (0 Bft) S 191 15 min 0,000 mm 0,0 UV-I 161 W/m -2,2 C 9,1 C 0,0 km/h (0 Bft) 0,00 %
28.03.2015 18:00 8,4 C 48 % 1016,0 hPa 0,0 l/m 0,0 km/h (0 Bft) S-SW 200 0 min 0,000 mm 0,0 UV-I 75 W/m -2,0 C 8,4 C 0,0 km/h (0 Bft) 0,00 %
28.03.2015 18:15 7,2 C 51 % 1016,1 hPa 0,0 l/m 0,0 km/h (0 Bft) S 185 0 min 0,000 mm 0,0 UV-I 8 W/m -2,2 C 7,2 C 0,0 km/h (0 Bft) 0,00 %
28.03.2015 18:30 6,5 C 53 % 1016,5 hPa 0,0 l/m 0,0 km/h (0 Bft) S 186 0 min 0,000 mm 0,0 UV-I 0 W/m -2,4 C 6,5 C 0,0 km/h (0 Bft) 0,00 %
28.03.2015 18:45 5,5 C 60 % 1016,7 hPa 0,0 l/m 0,0 km/h (0 Bft) S 190 0 min 0,000 mm 0,0 UV-I 0 W/m -1,6 C 5,5 C 0,0 km/h (0 Bft) 0,00 %
28.03.2015 19:00 5,3 C 58 % 1016,6 hPa 0,0 l/m 0,0 km/h (0 Bft) S 175 0 min 0,000 mm 0,0 UV-I 0 W/m -2,3 C 5,3 C 0,0 km/h (0 Bft) 0,00 %
28.03.2015 19:15 5,5 C 59 % 1016,8 hPa 0,0 l/m 0,0 km/h (0 Bft) S-SW 206 0 min 0,000 mm 0,0 UV-I 0 W/m -1,9 C 5,5 C 0,0 km/h (0 Bft) 0,00 %
28.03.2015 19:30 4,6 C 63 % 1016,8 hPa 0,0 l/m 0,0 km/h (0 Bft) S-SW 203 0 min 0,000 mm 0,0 UV-I 0 W/m -1,8 C 4,6 C 0,0 km/h (0 Bft) 0,00 %
28.03.2015 19:45 4,0 C 68 % 1016,9 hPa 0,0 l/m 0,0 km/h (0 Bft) S-SW 213 0 min 0,000 mm 0,0 UV-I 0 W/m -1,4 C 4,0 C 0,0 km/h (0 Bft) 0,00 %
28.03.2015 20:00 3,4 C 72 % 1017,0 hPa 0,0 l/m 0,0 km/h (0 Bft) S-SW 213 0 min 0,000 mm 0,0 UV-I 0 W/m -1,2 C 3,4 C 0,0 km/h (0 Bft) 0,00 %
28.03.2015 20:15 2,9 C 73 % 1016,9 hPa 0,0 l/m 0,0 km/h (0 Bft) S-SW 213 0 min 0,000 mm 0,0 UV-I 0 W/m -1,5 C 2,9 C 0,0 km/h (0 Bft) 0,00 %
28.03.2015 20:30 2,6 C 69 % 1017,0 hPa 0,0 l/m 0,0 km/h (0 Bft) S-SW 205 0 min 0,000 mm 0,0 UV-I 0 W/m -2,5 C 2,6 C 0,0 km/h (0 Bft) 0,00 %
28.03.2015 20:45 2,5 C 73 % 1016,7 hPa 0,0 l/m 0,0 km/h (0 Bft) S-SW 205 0 min 0,000 mm 0,0 UV-I 0 W/m -1,8 C 2,5 C 0,0 km/h (0 Bft) 0,00 %
28.03.2015 21:00 2,6 C 72 % 1016,6 hPa 0,0 l/m 0,0 km/h (0 Bft) S-SW 205 0 min 0,000 mm 0,0 UV-I 0 W/m -1,9 C 2,6 C 0,0 km/h (0 Bft) 0,00 %
28.03.2015 21:15 2,6 C 69 % 1016,5 hPa 0,0 l/m 0,0 km/h (0 Bft) S-SW 203 0 min 0,000 mm 0,0 UV-I 0 W/m -2,5 C 2,6 C 0,0 km/h (0 Bft) 0,00 %
28.03.2015 21:30 2,3 C 70 % 1016,5 hPa 0,0 l/m 0,0 km/h (0 Bft) S-SW 200 0 min 0,000 mm 0,0 UV-I 0 W/m -2,6 C 2,3 C 0,0 km/h (0 Bft) 0,00 %
28.03.2015 21:45 2,1 C 70 % 1016,4 hPa 0,0 l/m 0,0 km/h (0 Bft) S-SW 200 0 min 0,000 mm 0,0 UV-I 0 W/m -2,8 C 2,1 C 0,0 km/h (0 Bft) 0,00 %
28.03.2015 22:00 2,1 C 71 % 1016,1 hPa 0,0 l/m 0,0 km/h (0 Bft) S-SW 200 0 min 0,000 mm 0,0 UV-I 0 W/m -2,6 C 2,1 C 0,0 km/h (0 Bft) 0,00 %
28.03.2015 22:15 2,2 C 72 % 1016,1 hPa 0,0 l/m 0,0 km/h (0 Bft) S-SW 195 0 min 0,000 mm 0,0 UV-I 0 W/m -2,3 C 2,2 C 0,0 km/h (0 Bft) 0,00 %
28.03.2015 22:30 2,4 C 75 % 1015,9 hPa 0,0 l/m 0,0 km/h (0 Bft) S-SW 194 0 min 0,000 mm 0,0 UV-I 0 W/m -1,6 C 2,4 C 0,0 km/h (0 Bft) 0,00 %
28.03.2015 22:45 2,3 C 71 % 1015,9 hPa 0,0 l/m 0,0 km/h (0 Bft) S 188 0 min 0,000 mm 0,0 UV-I 0 W/m -2,4 C 2,3 C 0,0 km/h (0 Bft) 0,00 %
28.03.2015 23:00 2,1 C 72 % 1016,0 hPa 0,0 l/m 0,0 km/h (0 Bft) S 189 0 min 0,000 mm 0,0 UV-I 0 W/m -2,4 C 2,1 C 0,0 km/h (0 Bft) 0,00 %
28.03.2015 23:15 2,2 C 77 % 1015,7 hPa 0,0 l/m 0,0 km/h (0 Bft) SW 230 0 min 0,000 mm 0,0 UV-I 0 W/m -1,4 C 2,2 C 0,0 km/h (0 Bft) 0,00 %
28.03.2015 23:30 2,9 C 75 % 1015,5 hPa 0,0 l/m 0,0 km/h (0 Bft) S 189 0 min 0,000 mm 0,0 UV-I 0 W/m -1,1 C 2,9 C 0,0 km/h (0 Bft) 0,00 %
_ Min-Zeit 21:45 16:15 16:15 - 00:15 - - - - - - 16:00 21:45 00:15 00:00
Minimum _ 2,1 C 36 % 1015,3 hPa - 0,0 km/h (0 Bft) - - - - - - -3,7 C 2,1 C 0,0 km/h (0 Bft) 0,00 %
_ Max-Zeit 16:30 23:15 06:15 00:00 08:30 - - 07:15 00:00 10:15 12:45 01:00 16:30 08:30 00:00
Maximum _ 11,2 C 77 % 1023,0 hPa 0,0 l/m 13,3 km/h
W-SW (3 Bft)
- - 15 min 0,000 mm 4,0 UV-I 541 W/m 0,4 C 11,2 C 19,8 km/h
W-SW (3 Bft)
0,00 %
Durchschnitt _ 6,2 C 61 % 1019,4 hPa #0,0 l/m 1,0 km/h (0 Bft) W-SW - #7:00 h #0,000 mm 2,0 UV-I 262 W/m -1,2 C 6,1 C 2,3 km/h (1 Bft) 0,00 %